This is the latest recevied weather packets stored in our database for station/object KD0KHX-10. If no packets are shown the sender has not sent any weather packets the latest 1 day(s).
| Time | Temp. | Humidity | Pressure | Rain* | Wind** | Luminosity | Snow |
|---|---|---|---|---|---|---|---|
| 1836274677 | 14.44° C | 47% | 1012 hPa | 0 mm | 2.68 m/s, 38° | - | - |
| 1836274527 | 14.44° C | 46% | 1012 hPa | 0 mm | 2.68 m/s, 38° | - | - |
| 1836274377 | 15° C | 47% | 1012 hPa | 0 mm | 2.68 m/s, 37° | - | - |
| 1836274227 | 14.44° C | 47% | 1011.8 hPa | 0 mm | 2.68 m/s, 40° | - | - |
| 1836274077 | 15° C | 47% | 1012 hPa | 0 mm | 3.13 m/s, 37° | - | - |
| 1778066103 | 2.22° C | 49% | 1012 hPa | 1.27 mm | 1.34 m/s, 30° | - | - |
| 1778065803 | 2.22° C | 49% | 1012 hPa | 1.02 mm | 1.34 m/s, 30° | - | - |
| 1778065772 | 2.22° C | 49% | 1012 hPa | 1.02 mm | 1.34 m/s, 30° | - | - |
| 1778065473 | 2.22° C | 50% | 1012 hPa | 1.27 mm | 0.89 m/s, 30° | - | - |
| 1778064903 | 2.22° C | 50% | 1011.9 hPa | 1.02 mm | 1.34 m/s, 44° | - | - |
| 1778064738 | 2.22° C | 49% | 1011.9 hPa | 1.02 mm | 1.34 m/s, 55° | - | - |
| 1778064303 | 2.78° C | 49% | 1011.8 hPa | 1.02 mm | 1.34 m/s, 70° | - | - |
| 1778064003 | 2.78° C | 49% | 1011.8 hPa | 0.76 mm | 1.34 m/s, 70° | - | - |
| 1778063972 | 2.78° C | 49% | 1011.8 hPa | 0.76 mm | 1.34 m/s, 70° | - | - |
| 1778063403 | 2.78° C | 49% | 1011.7 hPa | 0.76 mm | 1.34 m/s, 70° | - | - |
| 1778063103 | 2.78° C | 49% | 1011.7 hPa | 0.76 mm | 1.34 m/s, 70° | - | - |
| 1778062803 | 2.78° C | 49% | 1011.6 hPa | 0.76 mm | 1.34 m/s, 70° | - | - |
| 1778062503 | 2.78° C | 49% | 1011.5 hPa | 0.76 mm | 0.89 m/s, 70° | - | - |
| 1778062203 | 2.78° C | 49% | 1011.5 hPa | 0.76 mm | 0.89 m/s, 69° | - | - |
| 1778061903 | 2.78° C | 49% | 1011.6 hPa | 0.51 mm | 1.34 m/s, 67° | - | - |
| 1778061737 | 3.33° C | 49% | 1011.5 hPa | 0.51 mm | 1.34 m/s, 67° | - | - |
| 1778061303 | 3.33° C | 49% | 1011.4 hPa | 0.51 mm | 1.34 m/s, 67° | - | - |
| 1778061003 | 3.33° C | 49% | 1011.3 hPa | 0.25 mm | 0.89 m/s, 67° | - | - |
| 1778060703 | 3.33° C | 49% | 1011.3 hPa | 0.25 mm | 0.45 m/s, 67° | - | - |
| 1778060537 | 3.33° C | 49% | 1011.3 hPa | 0.25 mm | 0.45 m/s, 67° | - | - |
* Rain latest hour (hover to see other rain measurements)
** Current wind speed in m/s (hover to see current wind gust speed)